^^
Datos históricos de la estación: Murcia-Puente Tocinos
Diario Informe para Septiembre 17, 2019 Unidades:  Ingés    Métrico   Ambas
Diario Semanal Mensual Anual
  Máxima: Mínima: Promedio:
Temperatura: 76.8 °F 63 °F 70 °F
Punto de rocio: 58.3 °F 34.5 °F 44.2 °F
Humedad: 83.8% 22.6% 44%
Velocidad viento: 16.3mph 0mph 7.8mph
Racha viento: 31.1mph - -
Viento- - Oeste
Presión: 29.8 in 29.6 in -
Precipitación: 0 in    
 
 
Tabla de datos para Septiembre 17, 2019
Hora Temperatura Punto de rocio Presión Viento Velocidad viento Racha viento Humedad Intensidad lluvia(por hora) Nubes
00:04 64.4 °F 57.6 °F 29.7 in NNE 4.3 mph 6 mph 78.1% 0 in
00:09 64.2 °F 57.6 °F 29.7 in North 3.8 mph 5.2 mph 79% 0 in
00:14 64.2 °F 57.7 °F 29.7 in NNE 2.9 mph 5 mph 79.6% 0 in
00:19 64 °F 57.9 °F 29.7 in NNE 2.9 mph 5.2 mph 80.2% 0 in
00:24 64 °F 58.1 °F 29.7 in NNE 2.9 mph 5 mph 81% 0 in
00:29 64 °F 58.1 °F 29.7 in NE 2.3 mph 5.8 mph 81% 0 in
00:34 63.9 °F 58.3 °F 29.7 in NE 1.4 mph 6 mph 81.9% 0 in
00:39 63.9 °F 58.3 °F 29.6 in NE 1.7 mph 6 mph 82% 0 in
00:44 63.7 °F 58.1 °F 29.6 in NNE 2.4 mph 5 mph 82% 0 in
00:49 63.7 °F 58.1 °F 29.6 in NNO 2 mph 4.3 mph 82% 0 in
00:54 63.7 °F 58.1 °F 29.6 in NO 1.4 mph 5 mph 82% 0 in
00:59 63.7 °F 58.3 °F 29.6 in NNO 2 mph 5 mph 82.9% 0 in
01:04 63.5 °F 58.3 °F 29.6 in NNO 2.9 mph 5 mph 83% 0 in
01:09 63.3 °F 58.1 °F 29.6 in North 2.7 mph 5 mph 83% 0 in
01:14 63.3 °F 58.3 °F 29.6 in NO 2.4 mph 5 mph 83.8% 0 in
01:19 63.3 °F 58.1 °F 29.6 in NO 2.2 mph 5 mph 83.2% 0 in
01:24 63.3 °F 58.1 °F 29.6 in NO 2 mph 4 mph 83% 0 in
01:29 63.3 °F 57.7 °F 29.6 in NO 1.9 mph 4.3 mph 82.3% 0 in
01:34 63.1 °F 57.6 °F 29.6 in NO 1.8 mph 5 mph 82% 0 in
01:39 63.1 °F 57.6 °F 29.6 in NNO 2.2 mph 5.2 mph 82% 0 in
01:44 63.1 °F 57.6 °F 29.6 in NNO 2.9 mph 5 mph 82% 0 in
01:49 63.1 °F 57.6 °F 29.6 in NO 2.5 mph 5 mph 82% 0 in
01:54 63 °F 57.6 °F 29.6 in NO 2 mph 5 mph 82.5% 0 in
01:59 63 °F 57.7 °F 29.6 in NO 2 mph 5 mph 82.9% 0 in
02:04 63 °F 57.7 °F 29.6 in NO 2 mph 4.6 mph 83% 0 in
02:09 63 °F 57.7 °F 29.6 in NO 2 mph 5 mph 83% 0 in
02:14 63 °F 57.7 °F 29.6 in NNO 2 mph 5.2 mph 83% 0 in
02:19 63 °F 57.7 °F 29.6 in NNO 2 mph 5 mph 83% 0 in
02:24 63 °F 57.7 °F 29.6 in NO 2 mph 5 mph 83% 0 in
02:29 63 °F 57.7 °F 29.6 in ONO 2 mph 3 mph 83% 0 in
02:34 63 °F 57.7 °F 29.6 in ONO 2 mph 2.4 mph 83% 0 in
02:39 63 °F 57.7 °F 29.6 in Este 2 mph 4.3 mph 83% 0 in
02:44 63 °F 57.7 °F 29.6 in SE 2 mph 5 mph 83% 0 in
02:49 63 °F 57.7 °F 29.6 in SE 2 mph 5 mph 83% 0 in
02:54 63.1 °F 57.9 °F 29.6 in SE 2.6 mph 5 mph 83% 0 in
02:59 63.1 °F 57.9 °F 29.6 in SE 1.9 mph 3 mph 83% 0 in
03:04 63.1 °F 57.7 °F 29.6 in Calm   3.6 mph 82.3% 0 in
03:09 63.1 °F 57.7 °F 29.6 in ONO 0.4 mph 4 mph 82.6% 0 in
03:14 63.1 °F 57.9 °F 29.6 in ONO 1.4 mph 4 mph 83% 0 in
03:19 63.1 °F 57.9 °F 29.6 in ONO 1.5 mph 3 mph 83% 0 in
03:24 63.1 °F 57.9 °F 29.6 in ONO 1.8 mph 4 mph 83% 0 in
03:29 63.1 °F 57.9 °F 29.6 in ONO 1.1 mph 5 mph 83% 0 in
03:34 63.1 °F 57.9 °F 29.6 in Calm   5 mph 83% 0 in
03:39 63.1 °F 57.9 °F 29.6 in Calm   4.6 mph 83% 0 in
03:44 63.1 °F 57.6 °F 29.6 in Calm   5.2 mph 82.1% 0 in
03:49 63.1 °F 57.6 °F 29.6 in OSO 1.1 mph 6.9 mph 82% 0 in
03:54 63.1 °F 57.6 °F 29.6 in Oeste 2.9 mph 7 mph 81.9% 0 in
03:59 63.3 °F 57.4 °F 29.6 in Oeste 3.4 mph 11.5 mph 81% 0 in
04:04 63.1 °F 57.4 °F 29.6 in OSO 4.3 mph 12 mph 81% 0 in
04:09 63.1 °F 57.2 °F 29.6 in SSO 4.7 mph 9.7 mph 81% 0 in
04:14 63.1 °F 57.4 °F 29.6 in SSO 5.4 mph 10.4 mph 81% 0 in
04:19 63.3 °F 57.4 °F 29.6 in SSO 5.4 mph 10 mph 81% 0 in
04:24 63.3 °F 57.4 °F 29.6 in SSO 5.4 mph 7 mph 81% 0 in
04:29 63.3 °F 57.4 °F 29.6 in Sur 4.8 mph 8.1 mph 81% 0 in
04:34 63.3 °F 57.4 °F 29.6 in SSO 4.3 mph 8.1 mph 81% 0 in
04:39 63.3 °F 57.4 °F 29.6 in SSO 4.5 mph 7.4 mph 81% 0 in
04:44 63.3 °F 57.4 °F 29.6 in Sur 4.7 mph 9.2 mph 81% 0 in
04:49 63.3 °F 57.4 °F 29.6 in SSO 4.9 mph 9 mph 81% 0 in
04:54 63.3 °F 57.4 °F 29.6 in OSO 5.2 mph 7 mph 81% 0 in
04:59 63.3 °F 57.4 °F 29.6 in Oeste 4.5 mph 7.6 mph 81% 0 in
05:04 63.3 °F 57.4 °F 29.6 in OSO 3.6 mph 8.1 mph 81% 0 in
05:09 63.3 °F 57.4 °F 29.6 in SO 3.9 mph 8 mph 81% 0 in
05:14 63.3 °F 57.4 °F 29.6 in SSO 4.3 mph 7 mph 81% 0 in
05:19 63.3 °F 57.2 °F 29.6 in Sur 4.3 mph 8.1 mph 80.4% 0 in
05:24 63.3 °F 57 °F 29.6 in SO 4.3 mph 8.1 mph 80.3% 0 in
05:29 63.3 °F 57.4 °F 29.6 in OSO 4.3 mph 7.4 mph 81% 0 in
05:34 63.3 °F 57.2 °F 29.6 in OSO 4.3 mph 8.1 mph 80.5% 0 in
05:39 63.3 °F 57 °F 29.6 in Oeste 4.3 mph 10.4 mph 80% 0 in
05:44 63.5 °F 56.8 °F 29.6 in Oeste 4.3 mph 10 mph 79% 0 in
05:49 63.9 °F 56.7 °F 29.6 in Oeste 4.3 mph 9.2 mph 77.6% 0 in
05:54 64.6 °F 55.6 °F 29.6 in Oeste 4.3 mph 13.8 mph 72.8% 0 in
05:59 65.3 °F 54.5 °F 29.6 in ONO 4.7 mph 15.2 mph 68% 0 in
06:04 65.7 °F 54 °F 29.6 in Oeste 8.1 mph 15 mph 66.1% 0 in
06:09 65.7 °F 53.4 °F 29.6 in ONO 8.1 mph 17.3 mph 64.6% 0 in
06:14 65.7 °F 52.5 °F 29.6 in ONO 8.1 mph 17.5 mph 62.7% 0 in
06:19 65.8 °F 52 °F 29.6 in Oeste 7.9 mph 17 mph 60.8% 0 in
06:24 65.8 °F 51.3 °F 29.6 in Oeste 7.6 mph 16.1 mph 59.2% 0 in
06:29 66 °F 51.3 °F 29.6 in Oeste 7.5 mph 16 mph 59% 0 in
06:34 65.8 °F 51.4 °F 29.6 in Oeste 7.4 mph 13 mph 59.9% 0 in
06:39 65.7 °F 51.1 °F 29.6 in Oeste 6.6 mph 13.8 mph 59.4% 0 in
06:44 65.7 °F 50 °F 29.6 in Oeste 5.4 mph 14 mph 57.2% 0 in
06:49 65.8 °F 48.4 °F 29.6 in Oeste 6.2 mph 18.1 mph 53.4% 0 in
06:54 66.4 °F 47.1 °F 29.6 in Oeste 7.4 mph 18.5 mph 50% 0 in
06:59 66.6 °F 47.1 °F 29.6 in Oeste 8 mph 19 mph 49.5% 0 in
07:04 66.6 °F 46 °F 29.6 in Oeste 10 mph 15 mph 47.5% 0 in
07:09 66.4 °F 45.3 °F 29.6 in ONO 9.3 mph 16.1 mph 46.5% 0 in
07:14 66.4 °F 44.6 °F 29.6 in ONO 8.1 mph 19 mph 45.6% 0 in
07:19 66.2 °F 44.2 °F 29.6 in ONO 9.1 mph 22.3 mph 45% 0 in
07:24 66 °F 44.1 °F 29.6 in ONO 10.7 mph 22 mph 45% 0 in
07:29 66 °F 44.1 °F 29.6 in ONO 10.4 mph 17.3 mph 45% 0 in
07:34 66 °F 44.1 °F 29.6 in ONO 10 mph 17 mph 45% 0 in
07:39 66 °F 44.1 °F 29.6 in ONO 9 mph 14 mph 45% 0 in
07:44 66 °F 44.1 °F 29.6 in Oeste 7.4 mph 14 mph 45% 0 in
07:49 66 °F 43.7 °F 29.6 in Oeste 7.2 mph 18.4 mph 44.3% 0 in
07:54 66.4 °F 43.7 °F 29.6 in OSO 6.9 mph 18 mph 44% 0 in
07:59 66.6 °F 43.5 °F 29.6 in Oeste 7.1 mph 16.3 mph 43.4% 0 in
08:04 66.7 °F 43.3 °F 29.7 in ONO 7.4 mph 22.3 mph 42.7% 0 in
08:09 66.7 °F 42.8 °F 29.7 in ONO 9.4 mph 25.3 mph 41.7% 0 in
08:14 67.1 °F 42.1 °F 29.7 in ONO 12.5 mph 25 mph 40.2% 0 in
08:19 67.3 °F 42.1 °F 29.7 in Oeste 13 mph 24 mph 39.8% 0 in
08:24 67.5 °F 41.5 °F 29.7 in Oeste 13.7 mph 20 mph 39% 0 in
08:29 67.5 °F 41.5 °F 29.7 in Oeste 12.6 mph 21.9 mph 39% 0 in
08:34 67.5 °F 41.5 °F 29.7 in Oeste 10.7 mph 22 mph 39% 0 in
08:39 67.5 °F 41.7 °F 29.7 in Oeste 10.7 mph 22 mph 39.1% 0 in
08:44 67.6 °F 41.9 °F 29.7 in Oeste 10.7 mph 18.1 mph 39.3% 0 in
08:49 67.6 °F 41.7 °F 29.7 in Oeste 10.1 mph 18.4 mph 39% 0 in
08:54 67.6 °F 42.1 °F 29.7 in Oeste 9.2 mph 21.9 mph 39.6% 0 in
08:59 67.6 °F 41.7 °F 29.7 in Oeste 10.3 mph 22 mph 39.1% 0 in
09:04 67.5 °F 42.1 °F 29.7 in Oeste 11.8 mph 21.9 mph 39.7% 0 in
09:09 67.5 °F 42.3 °F 29.7 in Oeste 11.6 mph 22 mph 40% 0 in
09:14 67.6 °F 41.9 °F 29.7 in ONO 11.2 mph 23.7 mph 39.1% 0 in
09:19 67.5 °F 41.9 °F 29.7 in ONO 12.1 mph 24.2 mph 39.4% 0 in
09:24 67.3 °F 42.1 °F 29.7 in ONO 13.5 mph 23 mph 39.8% 0 in
09:29 67.6 °F 42.4 °F 29.7 in Oeste 12.2 mph 22 mph 40% 0 in
09:34 67.8 °F 42.3 °F 29.7 in Oeste 10 mph 19.7 mph 39.4% 0 in
09:39 67.8 °F 42.6 °F 29.7 in Oeste 9.9 mph 20 mph 39.9% 0 in
09:44 68.4 °F 42.4 °F 29.7 in ONO 9.7 mph 19.7 mph 39.1% 0 in
09:49 68.4 °F 42.3 °F 29.7 in ONO 9.7 mph 20 mph 38.9% 0 in
09:54 68.4 °F 41.9 °F 29.7 in ONO 9.7 mph 20 mph 38.2% 0 in
09:59 68.4 °F 41.9 °F 29.7 in ONO 10.1 mph 19.7 mph 38.2% 0 in
10:04 68.4 °F 41.7 °F 29.7 in ONO 10.7 mph 20 mph 38% 0 in
10:09 68.5 °F 41.7 °F 29.7 in Oeste 10.5 mph 21.5 mph 37.7% 0 in
10:14 68.9 °F 41.2 °F 29.7 in OSO 10.2 mph 22 mph 36.6% 0 in
10:19 69.1 °F 41.4 °F 29.7 in Oeste 10.2 mph 22 mph 36.6% 0 in
10:24 69.3 °F 41.4 °F 29.7 in Oeste 10.2 mph 21 mph 36.5% 0 in
10:29 69.3 °F 41.2 °F 29.7 in Oeste 10.1 mph 19 mph 36% 0 in
10:34 69.4 °F 41.2 °F 29.7 in Oeste 10 mph 19.6 mph 35.8% 0 in
10:39 69.8 °F 41.7 °F 29.7 in Oeste 9.7 mph 20 mph 35.9% 0 in
10:44 70.2 °F 41.2 °F 29.7 in ONO 9.2 mph 18.1 mph 35.2% 0 in
10:49 70.2 °F 41.4 °F 29.7 in Oeste 9.2 mph 24.6 mph 35.1% 0 in
10:54 70.3 °F 41 °F 29.7 in ONO 9.2 mph 25 mph 34.3% 0 in
10:59 70.2 °F 40.5 °F 29.7 in Oeste 9.2 mph 17.3 mph 34% 0 in
11:04 70.2 °F 40.8 °F 29.7 in ONO 9.2 mph 17.8 mph 34.5% 0 in
11:09 70.3 °F 40.3 °F 29.7 in ONO 9.4 mph 19.7 mph 33.5% 0 in
11:14 70.3 °F 39.9 °F 29.7 in ONO 9.7 mph 20.8 mph 33% 0 in
11:19 70.5 °F 39.9 °F 29.7 in ONO 10.5 mph 21 mph 33% 0 in
11:24 70.7 °F 40.5 °F 29.7 in Oeste 12.3 mph 21.5 mph 33.4% 0 in
11:29 70.9 °F 39.4 °F 29.7 in Oeste 11.9 mph 22 mph 31.8% 0 in
11:34 71.1 °F 39.6 °F 29.7 in Oeste 11.2 mph 22.3 mph 31.8% 0 in
11:39 71.2 °F 39.2 °F 29.7 in Oeste 11.2 mph 22 mph 31.3% 0 in
11:44 71.6 °F 39.7 °F 29.7 in Oeste 11.2 mph 20.8 mph 31.3% 0 in
11:49 72 °F 39.7 °F 29.7 in ONO 11 mph 21 mph 31% 0 in
11:54 72.1 °F 39 °F 29.7 in Oeste 10.7 mph 21.9 mph 30% 0 in
11:59 72.5 °F 39 °F 29.7 in Oeste 11.1 mph 22 mph 29.7% 0 in
12:04 72.7 °F 38.8 °F 29.7 in Oeste 11.8 mph 22 mph 29.4% 0 in
12:09 72.9 °F 38.3 °F 29.7 in Oeste 11.6 mph 20.8 mph 28.6% 0 in
12:14 72.9 °F 37.6 °F 29.7 in Oeste 11.2 mph 21 mph 27.9% 0 in
12:19 72.9 °F 37.4 °F 29.7 in Oeste 11.4 mph 20 mph 27.5% 0 in
12:24 72.9 °F 37.4 °F 29.7 in Oeste 11.8 mph 20.8 mph 27.6% 0 in
12:29 73 °F 37.6 °F 29.7 in Oeste 12 mph 21 mph 27.7% 0 in
12:34 73.4 °F 37.8 °F 29.7 in ONO 12.3 mph 21 mph 27.5% 0 in
12:39 73.6 °F 37.2 °F 29.7 in ONO 11.9 mph 21 mph 26.8% 0 in
12:44 73.4 °F 37.9 °F 29.7 in ONO 11.4 mph 21 mph 27.6% 0 in
12:49 73.9 °F 37 °F 29.7 in ONO 11.6 mph 28.8 mph 26.2% 0 in
12:54 73.8 °F 36 °F 29.7 in ONO 11.8 mph 29.1 mph 25.3% 0 in
12:59 74.1 °F 36 °F 29.7 in ONO 13.4 mph 29 mph 24.9% 0 in
13:04 74.7 °F 36.1 °F 29.7 in ONO 15.6 mph 24.2 mph 24.7% 0 in
13:09 74.7 °F 34.9 °F 29.7 in ONO 15.2 mph 27.9 mph 23.4% 0 in
13:14 74.7 °F 34.5 °F 29.7 in Oeste 14.5 mph 31.1 mph 23.2% 0 in
13:19 75.4 °F 34.9 °F 29.7 in Oeste 14.8 mph 31.1 mph 23% 0 in
13:24 75.4 °F 34.5 °F 29.7 in ONO 15.2 mph 31 mph 22.6% 0 in
13:29 75.4 °F 35.4 °F 29.7 in ONO 14.7 mph 26 mph 23.4% 0 in
13:34 75.7 °F 36 °F 29.7 in ONO 14 mph 22 mph 23.7% 0 in
13:39 75.6 °F 35.4 °F 29.7 in ONO 13.4 mph 24.2 mph 23.3% 0 in
13:44 75.6 °F 36 °F 29.7 in NO 12.5 mph 25.6 mph 23.8% 0 in
13:49 75.6 °F 35.1 °F 29.7 in ONO 13.3 mph 26 mph 23% 0 in
13:54 75.6 °F 35.4 °F 29.7 in ONO 14.5 mph 23 mph 23.2% 0 in
13:59 75.7 °F 35.2 °F 29.7 in NO 14 mph 23 mph 23% 0 in
14:04 75.9 °F 35.4 °F 29.7 in ONO 13.5 mph 23.7 mph 23% 0 in
14:09 76.1 °F 35.6 °F 29.7 in ONO 13.5 mph 24.6 mph 23% 0 in
14:14 75.7 °F 35.4 °F 29.7 in ONO 13.5 mph 25 mph 23.1% 0 in
14:19 75.9 °F 35.4 °F 29.7 in ONO 12.6 mph 20 mph 23% 0 in
14:24 75.7 °F 35.4 °F 29.7 in NO 11.2 mph 23 mph 23.2% 0 in
14:29 75.4 °F 36.1 °F 29.7 in NO 11.4 mph 23 mph 24% 0 in
14:34 75.4 °F 35.6 °F 29.7 in ONO 11.8 mph 25.3 mph 23.6% 0 in
14:39 75.4 °F 36.1 °F 29.7 in ONO 11.8 mph 25 mph 24% 0 in
14:44 75.6 °F 36.5 °F 29.7 in NO 11.8 mph 20.7 mph 24.2% 0 in
14:49 75.6 °F 36.1 °F 29.7 in ONO 11.6 mph 21.3 mph 24% 0 in
14:54 75.7 °F 36.7 °F 29.7 in ONO 11.4 mph 26.8 mph 24.3% 0 in
14:59 75.7 °F 37 °F 29.7 in NO 12.3 mph 27 mph 24.5% 0 in
15:04 75.9 °F 36.7 °F 29.7 in ONO 13.5 mph 23 mph 24.2% 0 in
15:09 75.7 °F 36 °F 29.7 in ONO 13.7 mph 28.8 mph 23.5% 0 in
15:14 76.1 °F 36.7 °F 29.7 in ONO 14 mph 29 mph 24% 0 in
15:19 76.6 °F 36.9 °F 29.7 in ONO 14.6 mph 27.9 mph 23.8% 0 in
15:24 76.5 °F 37.6 °F 29.7 in ONO 15.6 mph 29.7 mph 24.6% 0 in
15:29 76.6 °F 38.1 °F 29.7 in NO 15.9 mph 30 mph 24.9% 0 in
15:34 76.5 °F 37.9 °F 29.7 in NO 16.3 mph 30 mph 25% 0 in
15:39 76.6 °F 37.9 °F 29.7 in ONO 15.3 mph 23 mph 24.9% 0 in
15:44 76.8 °F 38.3 °F 29.7 in ONO 13.5 mph 21.9 mph 25% 0 in
15:49 76.8 °F 37.9 °F 29.7 in ONO 13.7 mph 24.6 mph 24.7% 0 in
15:54 76.3 °F 37.9 °F 29.7 in ONO 14 mph 27.6 mph 25% 0 in
15:59 75.9 °F 38.1 °F 29.7 in ONO 14.2 mph 28 mph 25.6% 0 in
16:04 76.3 °F 38.7 °F 29.7 in ONO 14.5 mph 21.9 mph 25.8% 0 in
16:09 76.5 °F 38.3 °F 29.7 in OSO 13.3 mph 23 mph 25.3% 0 in
16:14 76.6 °F 38.3 °F 29.7 in Oeste 11.4 mph 23 mph 25% 0 in
16:19 76.6 °F 38.1 °F 29.7 in Oeste 11.1 mph 21.9 mph 25% 0 in
16:24 76.5 °F 38.1 °F 29.7 in Oeste 10.7 mph 22 mph 25% 0 in
16:29 76.1 °F 38.1 °F 29.7 in ONO 10.9 mph 19.7 mph 25.4% 0 in
16:34 76.3 °F 38.5 °F 29.7 in Oeste 11.2 mph 20 mph 25.6% 0 in
16:39 76.3 °F 38.5 °F 29.7 in ONO 10.6 mph 24.8 mph 25.6% 0 in
16:44 76.5 °F 38.5 °F 29.7 in Oeste 9.7 mph 25.3 mph 25.5% 0 in
16:49 76.3 °F 38.1 °F 29.7 in ONO 10.5 mph 23 mph 25.3% 0 in
16:54 75.9 °F 38.1 °F 29.7 in Oeste 11.8 mph 14 mph 25.5% 0 in
16:59 75.9 °F 38.1 °F 29.7 in Oeste 9.9 mph 13 mph 25.5% 0 in
17:04 76.3 °F 38.8 °F 29.7 in Oeste 6.9 mph 13 mph 26% 0 in
17:09 76.6 °F 39.2 °F 29.7 in ONO 6.7 mph 15.9 mph 26% 0 in
17:14 76.5 °F 38.7 °F 29.7 in ONO 6.4 mph 17.8 mph 25.5% 0 in
17:19 76.1 °F 38.3 °F 29.7 in ONO 7.8 mph 18.4 mph 25.4% 0 in
17:24 75.9 °F 38.3 °F 29.7 in ONO 10.2 mph 18 mph 25.7% 0 in
17:29 75.9 °F 38.3 °F 29.7 in ONO 9.9 mph 17 mph 25.7% 0 in
17:34 75.9 °F 37.9 °F 29.7 in Oeste 9.2 mph 18.5 mph 25.4% 0 in
17:39 75.7 °F 37.9 °F 29.7 in Oeste 9.6 mph 19 mph 25.5% 0 in
17:44 75.9 °F 37.8 °F 29.7 in ONO 10.2 mph 18.4 mph 25.1% 0 in
17:49 76.1 °F 37.8 °F 29.7 in ONO 9.8 mph 18 mph 25% 0 in
17:54 76.3 °F 37.9 °F 29.7 in ONO 9.2 mph 17.3 mph 25% 0 in
17:59 76.3 °F 37.9 °F 29.7 in Oeste 9 mph 17 mph 25% 0 in
18:04 76.5 °F 38.7 °F 29.7 in ONO 8.7 mph 14 mph 25.7% 0 in
18:09 76.5 °F 38.8 °F 29.7 in ONO 8.4 mph 17.3 mph 25.9% 0 in
18:14 76.5 °F 39 °F 29.7 in ONO 8.1 mph 18.4 mph 26% 0 in
18:19 76.1 °F 39 °F 29.7 in ONO 8.9 mph 18 mph 26.4% 0 in
18:24 75.9 °F 39.2 °F 29.7 in NO 10.2 mph 15 mph 26.7% 0 in
18:29 75.9 °F 38.7 °F 29.7 in NO 10.2 mph 20.8 mph 26.2% 0 in
18:34 75.7 °F 38.5 °F 29.7 in NO 10.2 mph 21 mph 26% 0 in
18:39 76.1 °F 38.8 °F 29.7 in NO 10.6 mph 19 mph 26% 0 in
18:44 76.6 °F 39 °F 29.7 in NO 11.2 mph 19 mph 26% 0 in
18:49 76.6 °F 39 °F 29.7 in ONO 10.9 mph 17 mph 26% 0 in
18:54 76.5 °F 39 °F 29.7 in NO 10.2 mph 19 mph 26% 0 in
18:59 76.5 °F 38.7 °F 29.7 in ONO 10.1 mph 20.7 mph 25.6% 0 in
19:04 76.3 °F 38.8 °F 29.7 in NO 10 mph 21 mph 25.9% 0 in
19:09 76.3 °F 38.8 °F 29.7 in NO 10 mph 19.6 mph 26% 0 in
19:14 76.3 °F 38.8 °F 29.7 in NO 10 mph 20 mph 26% 0 in
19:19 76.5 °F 38.8 °F 29.7 in NO 9.5 mph 18.4 mph 25.8% 0 in
19:24 76.5 °F 38.8 °F 29.7 in NO 8.7 mph 18 mph 25.8% 0 in
19:29 76.6 °F 38.5 °F 29.7 in ONO 8.9 mph 18.4 mph 25.3% 0 in
19:34 76.8 °F 38.3 °F 29.7 in NO 9.2 mph 18 mph 25% 0 in
19:39 76.8 °F 38.3 °F 29.7 in NO 9.4 mph 22.3 mph 25% 0 in
19:44 76.6 °F 38.3 °F 29.7 in ONO 9.7 mph 22 mph 25% 0 in
19:49 76.6 °F 38.1 °F 29.7 in ONO 9.8 mph 17.5 mph 25% 0 in
19:54 76.6 °F 37.6 °F 29.7 in ONO 10 mph 17 mph 24.5% 0 in
19:59 76.6 °F 37.6 °F 29.7 in ONO 9.6 mph 17.5 mph 24.4% 0 in
20:04 76.5 °F 37.2 °F 29.7 in ONO 9.2 mph 17 mph 24.2% 0 in
20:09 76.1 °F 37.6 °F 29.7 in ONO 9.5 mph 17.3 mph 24.8% 0 in
20:14 75.7 °F 37.9 °F 29.7 in ONO 10 mph 15.9 mph 25.5% 0 in
20:19 75.6 °F 38.1 °F 29.7 in NO 9.7 mph 17.3 mph 26% 0 in
20:24 75.2 °F 38.1 °F 29.7 in NO 9.2 mph 18.4 mph 26.3% 0 in
20:29 75 °F 38.8 °F 29.7 in NO 9.4 mph 18 mph 27% 0 in
20:34 74.8 °F 39 °F 29.7 in NO 9.7 mph 16 mph 27.4% 0 in
20:39 74.7 °F 39.4 °F 29.7 in NO 8.3 mph 16.1 mph 28% 0 in
20:44 74.3 °F 39 °F 29.7 in NO 6.2 mph 16 mph 28% 0 in
20:49 74.1 °F 38.8 °F 29.7 in NO 6.6 mph 13 mph 28% 0 in
20:54 73.9 °F 38.8 °F 29.7 in NO 7.4 mph 13 mph 28% 0 in
20:59 73.9 °F 38.7 °F 29.7 in NO 7.2 mph 10 mph 28% 0 in
21:04 73.8 °F 38.7 °F 29.7 in NO 6.9 mph 13 mph 28% 0 in
21:09 73.6 °F 39.4 °F 29.7 in NO 6.3 mph 13 mph 28.9% 0 in
21:14 73.2 °F 39 °F 29.7 in NO 5.4 mph 9.2 mph 29% 0 in
21:19 73 °F 38.8 °F 29.7 in NO 5.3 mph 9 mph 29% 0 in
21:24 72.9 °F 38.8 °F 29.7 in NO 5.2 mph 8.1 mph 29% 0 in
21:29 72.9 °F 38.7 °F 29.7 in NO 4.8 mph 8.1 mph 29% 0 in
21:34 72.7 °F 38.7 °F 29.7 in NO 4.3 mph 7.4 mph 29% 0 in
21:39 72.5 °F 38.5 °F 29.7 in NO 4 mph 7 mph 29% 0 in
21:44 72.3 °F 38.5 °F 29.7 in NO 3.6 mph 7 mph 29.3% 0 in
21:49 72.1 °F 39 °F 29.7 in NO 3.6 mph 6 mph 30% 0 in
21:54 72 °F 38.8 °F 29.7 in NO 3.6 mph 5.9 mph 30% 0 in
21:59 71.8 °F 38.7 °F 29.7 in NNO 3.4 mph 6 mph 30% 0 in
22:04 71.4 °F 38.5 °F 29.7 in NNO 3.1 mph 5.8 mph 30% 0 in
22:09 71.2 °F 39 °F 29.7 in NNO 3.1 mph 6 mph 30.9% 0 in
22:14 71.1 °F 38.8 °F 29.7 in NNO 3.1 mph 8.5 mph 31% 0 in
22:19 70.9 °F 38.7 °F 29.7 in NNO 3.5 mph 9 mph 31% 0 in
22:24 70.7 °F 38.7 °F 29.7 in NNO 4.3 mph 8 mph 31% 0 in
22:29 70.5 °F 38.5 °F 29.7 in NNO 3.9 mph 6.2 mph 31% 0 in
22:34 70.3 °F 38.5 °F 29.7 in NNO 3.1 mph 6 mph 31.1% 0 in
22:39 70.3 °F 38.8 °F 29.7 in NNO 3 mph 5 mph 31.9% 0 in
22:44 70.2 °F 38.8 °F 29.7 in NO 2.9 mph 3 mph 32% 0 in
22:49 70 °F 38.8 °F 29.8 in NO 2.3 mph 3.6 mph 32% 0 in
22:54 70 °F 38.7 °F 29.8 in NNO 1.4 mph 6.2 mph 31.9% 0 in
22:59 70 °F 38.7 °F 29.8 in ONO 1.6 mph 6 mph 31.9% 0 in
23:04 69.8 °F 38.7 °F 29.8 in NO 2 mph 5.2 mph 32% 0 in
23:09 69.8 °F 38.7 °F 29.8 in NO 2.4 mph 5 mph 32% 0 in
23:14 69.6 °F 38.5 °F 29.8 in NNO 2.9 mph 8.1 mph 32% 0 in
23:19 69.6 °F 38.5 °F 29.8 in NNO 2.7 mph 8 mph 32% 0 in
23:24 69.6 °F 38.5 °F 29.8 in North 2.4 mph 5 mph 32.1% 0 in
23:29 69.4 °F 39.7 °F 29.8 in ESE 2.2 mph 5.9 mph 33.9% 0 in
23:34 69.3 °F 40.5 °F 29.8 in SE 2 mph 6 mph 35% 0 in
23:39 69.3 °F 40.3 °F 29.8 in SSE 2.4 mph 5 mph 35% 0 in
23:44 68.9 °F 40.5 °F 29.8 in SSE 2.9 mph 5 mph 35.4% 0 in
23:49 68.7 °F 40.6 °F 29.8 in SE 2.9 mph 5 mph 36% 0 in
23:54 68.7 °F 40.6 °F 29.8 in SE 2.9 mph 5.2 mph 35.8% 0 in
23:59 68.7 °F 39.7 °F 29.8 in ENE 2.7 mph 5 mph 34.6% 0 in
Murcia-Puente Tocinos, España
Compliments of Weather Underground - 3 mb

La estación de MeteoMurcia.com, publica sus datos en los siguientes proyectos:

Weather Underground PWS IMURCIAP2 Meteoclimatic www.awekas.at

W3Counter
Web Analytics